Time;durP1;ratioP1;P1;durP2;ratioP2;P2;SDS_P1;SDS_P2;PMS_P1;PMS_P2;Temp;Humidity;BMP_temperature;BMP_pressure;BME280_temperature;BME280_humidity;BME280_pressure;Samples;Min_cycle;Max_cycle;Signal;HPM_P1;HPM_P2
2022/05/16 00:03:09;;;;;;;9.13;4.72;;;;;;;16.79;76.18;100398.69;8294414;28;20038;-63
2022/05/16 00:07:10;;;;;;;10.20;3.92;;;;;;;16.65;77.07;100396.78;8293874;28;20494;-63
2022/05/16 00:11:11;;;;;;;10.93;4.35;;;;;;;16.55;77.09;100396.16;8295067;28;20073;-63
2022/05/16 00:15:13;;;;;;;5.85;3.42;;;;;;;16.46;77.60;100408.16;8294464;28;20540;-63
2022/05/16 00:19:14;;;;;;;6.35;3.67;;;;;;;16.44;77.31;100388.41;8293649;28;20084;-63
2022/05/16 00:23:14;;;;;;;6.93;3.65;;;;;;;16.37;77.47;100387.38;8293887;28;20085;-63
2022/05/16 00:27:15;;;;;;;4.03;2.97;;;;;;;16.43;77.37;100389.38;8296368;28;20124;-63
2022/05/16 00:31:16;;;;;;;9.53;4.00;;;;;;;16.58;76.62;100379.41;8294931;28;20049;-63
2022/05/16 00:35:19;;;;;;;5.00;3.45;;;;;;;16.59;76.46;100381.13;8295683;28;20292;-63
2022/05/16 00:39:21;;;;;;;6.57;3.22;;;;;;;16.61;76.08;100377.19;8295466;28;20045;-63
2022/05/16 00:43:40;;;;;;;6.65;3.30;;;;;;;16.65;75.96;100374.94;8301993;28;20048;-63
2022/05/16 00:47:40;;;;;;;5.57;3.53;;;;;;;16.54;76.56;100378.09;8295250;28;20042;-63
2022/05/16 00:51:48;;;;;;;5.25;3.33;;;;;;;16.49;77.15;100380.50;8295271;28;20576;-63
2022/05/16 00:55:50;;;;;;;6.15;3.58;;;;;;;16.30;77.62;100372.75;8298176;28;20348;-63
2022/05/16 01:00:03;;;;;;;6.63;3.78;;;;;;;16.19;78.24;100365.00;8291997;28;20046;-63
2022/05/16 01:05:06;;;;;;;6.60;3.30;;;;;;;16.18;78.54;100360.56;8295349;28;20037;-63
2022/05/16 01:08:28;;;;;;;7.22;3.55;;;;;;;16.16;78.62;100368.09;8293681;28;20045;-63
2022/05/16 01:12:36;;;;;;;6.80;3.40;;;;;;;16.12;79.12;100361.28;8294396;28;20052;-63
2022/05/16 01:16:37;;;;;;;6.70;3.47;;;;;;;16.08;78.81;100359.97;8294865;28;20095;-63
2022/05/16 01:21:17;;;;;;;6.72;3.80;;;;;;;15.94;79.68;100360.72;8324889;28;20026;-63
2022/05/16 01:25:27;;;;;;;5.43;3.25;;;;;;;15.91;79.84;100363.78;8293643;28;20037;-63
2022/05/16 01:29:27;;;;;;;8.32;3.67;;;;;;;15.91;79.84;100363.78;8293523;28;20042;-63
2022/05/16 01:33:28;;;;;;;6.47;3.78;;;;;;;15.88;79.76;100364.16;8298225;28;20120;-63
2022/05/16 01:38:18;;;;;;;10.18;3.78;;;;;;;15.73;80.82;100361.31;8293308;28;20137;-63
2022/05/16 01:41:48;;;;;;;5.22;3.38;;;;;;;15.62;81.06;100359.84;8292254;28;20088;-63
2022/05/16 01:45:49;;;;;;;8.85;3.55;;;;;;;15.55;81.54;100369.75;8293915;28;20498;-63
2022/05/16 01:49:49;;;;;;;6.10;3.50;;;;;;;15.47;81.84;100364.31;8293132;28;20073;-63
2022/05/16 01:53:51;;;;;;;8.07;4.10;;;;;;;15.43;81.86;100357.53;8324985;28;20037;-63
2022/05/16 01:57:51;;;;;;;7.47;3.92;;;;;;;15.32;82.37;100351.59;8292888;28;20864;-63
2022/05/16 02:01:51;;;;;;;9.57;3.85;;;;;;;15.28;82.64;100351.06;8293254;28;20414;-63
2022/05/16 02:05:52;;;;;;;8.30;4.00;;;;;;;15.22;82.66;100340.06;8293354;28;20058;-63
2022/05/16 02:09:52;;;;;;;7.15;4.07;;;;;;;15.22;82.85;100331.88;8292914;28;20058;-63
2022/05/16 02:13:53;;;;;;;8.33;3.87;;;;;;;15.20;82.89;100331.19;8293082;28;20137;-62
2022/05/16 02:17:53;;;;;;;6.97;4.30;;;;;;;15.14;83.47;100331.88;8302090;28;20288;-62
2022/05/16 02:26:14;;;;;;;5.35;4.22;;;;;;;15.03;84.05;100337.69;8304502;28;20037;-62
2022/05/16 02:30:15;;;;;;;10.23;4.47;;;;;;;15.05;83.92;100331.06;8330940;28;20510;-62
2022/05/16 02:34:16;;;;;;;5.05;3.92;;;;;;;15.06;83.60;100324.59;8308101;28;20819;-62
2022/05/16 02:38:18;;;;;;;8.70;4.30;;;;;;;14.94;83.97;100325.97;8302832;28;20111;-62
2022/05/16 02:42:19;;;;;;;7.63;4.30;;;;;;;14.85;84.67;100316.13;8307000;28;20103;-62
2022/05/16 02:46:19;;;;;;;10.52;4.55;;;;;;;14.85;84.91;100309.84;8301747;28;20069;-62
2022/05/16 02:50:23;;;;;;;8.65;4.57;;;;;;;14.82;84.77;100294.69;8301220;28;20124;-62
2022/05/16 02:54:24;;;;;;;9.85;3.90;;;;;;;14.82;84.69;100294.69;8306428;28;20061;-62
2022/05/16 02:58:24;;;;;;;8.57;4.22;;;;;;;14.67;85.63;100296.41;8335541;28;20042;-62
2022/05/16 03:02:25;;;;;;;9.05;4.55;;;;;;;14.60;86.09;100295.41;8306186;28;20095;-62
2022/05/16 03:06:26;;;;;;;6.60;4.57;;;;;;;14.67;85.81;100301.84;8292849;28;20044;-62
2022/05/16 03:10:26;;;;;;;8.60;5.50;;;;;;;14.69;85.74;100305.25;8330551;28;20050;-62
2022/05/16 03:14:27;;;;;;;7.30;5.15;;;;;;;14.70;85.59;100301.50;8296477;28;20141;-62
2022/05/16 03:18:29;;;;;;;7.80;4.80;;;;;;;14.71;85.46;100297.78;8296261;28;20160;-62
2022/05/16 03:22:29;;;;;;;6.72;4.70;;;;;;;14.74;85.43;100297.44;8295910;28;20041;-62
2022/05/16 03:26:30;;;;;;;8.67;4.77;;;;;;;14.81;85.17;100293.00;8302460;28;20049;-62
2022/05/16 03:30:30;;;;;;;9.82;4.53;;;;;;;14.91;84.58;100293.66;8295874;28;25376;-62
2022/05/16 03:34:31;;;;;;;9.63;5.30;;;;;;;14.95;84.68;100286.81;8304068;28;20070;-62
2022/05/16 03:42:52;;;;;;;9.00;5.25;;;;;;;14.61;86.19;100288.94;8299079;28;20835;-62
2022/05/16 03:46:52;;;;;;;7.65;4.85;;;;;;;14.50;86.91;100283.88;8294842;28;20033;-62
2022/05/16 03:50:52;;;;;;;12.57;5.03;;;;;;;14.71;86.09;100270.59;8293912;28;20529;-62
2022/05/16 03:54:53;;;;;;;7.93;4.40;;;;;;;14.95;84.84;100281.38;8295584;28;20277;-62
2022/05/16 03:58:55;;;;;;;13.48;4.80;;;;;;;15.21;83.67;100272.97;8296695;28;20038;-62
2022/05/16 04:02:55;;;;;;;12.43;4.40;;;;;;;15.39;82.78;100277.19;8297240;28;20034;-62
2022/05/16 04:06:55;;;;;;;7.50;4.05;;;;;;;15.59;81.80;100270.25;8295455;28;20042;-62
2022/05/16 04:10:57;;;;;;;10.03;4.33;;;;;;;15.75;80.98;100277.50;8307137;28;20410;-63
2022/05/16 04:14:57;;;;;;;7.40;4.45;;;;;;;15.80;80.80;100268.78;8297297;28;20721;-62
2022/05/16 04:18:58;;;;;;;11.02;4.80;;;;;;;15.95;80.20;100261.53;8323258;28;20132;-62
2022/05/16 04:22:58;;;;;;;12.00;4.60;;;;;;;16.07;79.96;100276.44;8295696;28;20037;-62
2022/05/16 04:26:59;;;;;;;9.85;4.68;;;;;;;16.19;79.72;100275.00;8282051;28;20285;-62
2022/05/16 04:30:59;;;;;;;17.85;4.15;;;;;;;16.37;79.35;100268.19;8282908;28;20053;-62
2022/05/16 04:35:01;;;;;;;8.25;4.65;;;;;;;16.41;79.45;100274.13;8293919;28;20038;-62
2022/05/16 04:39:01;;;;;;;13.35;4.63;;;;;;;16.51;80.01;100264.69;8280706;28;20523;-62
2022/05/16 04:43:01;;;;;;;12.25;4.35;;;;;;;16.72;79.68;100283.06;8292630;28;20486;-62
2022/05/16 04:47:03;;;;;;;12.47;4.00;;;;;;;16.80;79.84;100274.81;8297132;28;20314;-63
2022/05/16 04:51:04;;;;;;;6.78;3.83;;;;;;;17.14;78.70;100275.13;8294273;28;20685;-63
2022/05/16 04:55:06;;;;;;;11.68;3.38;;;;;;;17.39;77.36;100271.03;8300052;28;20121;-63
2022/05/16 04:59:08;;;;;;;4.18;3.15;;;;;;;17.30;77.61;100272.19;8302001;28;20459;-63
2022/05/16 05:03:10;;;;;;;10.60;3.50;;;;;;;17.33;78.02;100274.53;8289532;28;20033;-62
2022/05/16 05:07:12;;;;;;;7.85;3.83;;;;;;;17.43;77.28;100275.97;8289543;28;20041;-62
2022/05/16 05:15:36;;;;;;;9.13;3.17;;;;;;;17.51;77.16;100289.53;8288195;28;20030;-63
2022/05/16 05:19:40;;;;;;;11.23;2.97;;;;;;;17.59;76.51;100283.09;8319943;28;20034;-63
2022/05/16 05:23:41;;;;;;;6.50;3.38;;;;;;;17.67;76.49;100284.88;8289979;28;20038;-63
2022/05/16 05:27:43;;;;;;;7.85;2.85;;;;;;;17.76;75.63;100290.06;8283269;28;20038;-63
2022/05/16 05:31:43;;;;;;;7.07;2.95;;;;;;;17.79;75.45;100305.22;8325694;28;20522;-63
2022/05/16 05:35:44;;;;;;;8.90;3.47;;;;;;;17.76;76.02;100300.13;8294331;28;20038;-62
2022/05/16 05:39:44;;;;;;;8.32;3.22;;;;;;;17.84;76.89;100308.25;8288619;28;20108;-62
2022/05/16 05:43:44;;;;;;;50.07;9.53;;;;;;;17.86;77.46;100300.66;8288321;28;20038;-62
2022/05/16 05:47:45;;;;;;;9.43;4.05;;;;;;;17.95;77.19;100311.31;8279159;28;20281;-63
2022/05/16 05:51:45;;;;;;;10.80;3.92;;;;;;;17.75;80.36;100321.16;8277311;28;20449;-63
2022/05/16 05:55:47;;;;;;;8.35;4.40;;;;;;;17.64;80.71;100318.94;8274582;28;20155;-64
2022/05/16 05:59:47;;;;;;;70.18;8.93;;;;;;;17.68;80.07;100325.69;8256166;28;20049;-63
2022/05/16 06:03:48;;;;;;;12.75;4.13;;;;;;;17.76;80.17;100336.53;8269347;28;20096;-63
2022/05/16 06:07:48;;;;;;;7.50;3.92;;;;;;;17.59;80.76;100337.78;8270007;28;20046;-63
2022/05/16 06:11:49;;;;;;;7.88;4.40;;;;;;;17.62;81.77;100334.66;8266290;28;20533;-63
2022/05/16 06:15:50;;;;;;;9.27;4.22;;;;;;;17.76;81.97;100343.88;8268001;28;20745;-63
2022/05/16 06:19:50;;;;;;;13.27;4.75;;;;;;;17.81;81.40;100336.81;8268792;28;20422;-63
2022/05/16 06:23:51;;;;;;;7.20;4.05;;;;;;;17.87;80.84;100346.97;8273960;28;20048;-63
2022/05/16 06:27:52;;;;;;;10.00;4.13;;;;;;;17.94;80.36;100345.19;8272534;28;20061;-63
2022/05/16 06:31:53;;;;;;;13.52;4.15;;;;;;;18.04;80.00;100348.47;8263401;28;20565;-63
2022/05/16 06:35:53;;;;;;;12.68;3.70;;;;;;;18.15;80.16;100350.72;8274765;28;20566;-63
2022/05/16 06:39:54;;;;;;;12.15;3.42;;;;;;;18.36;79.74;100337.03;8278252;28;20041;-63
2022/05/16 06:43:54;;;;;;;13.23;3.73;;;;;;;18.54;79.86;100345.66;8282049;28;20038;-63
2022/05/16 06:47:54;;;;;;;8.53;2.90;;;;;;;18.74;79.93;100354.06;8277828;28;21049;-63
2022/05/16 06:51:55;;;;;;;13.35;3.53;;;;;;;18.87;79.18;100357.78;8275634;28;20343;-63
2022/05/16 06:55:56;;;;;;;11.52;4.13;;;;;;;18.90;79.85;100368.34;8278075;28;20045;-63
2022/05/16 06:59:57;;;;;;;11.68;4.43;;;;;;;19.09;80.37;100375.03;8279874;28;20072;-63
2022/05/16 07:03:57;;;;;;;12.38;3.88;;;;;;;19.18;80.08;100366.44;8279906;28;20046;-63
2022/05/16 07:07:58;;;;;;;19.63;4.15;;;;;;;19.23;80.57;100374.94;8270987;28;20046;-63
2022/05/16 07:11:58;;;;;;;12.85;4.13;;;;;;;19.29;80.81;100365.94;8251952;28;20065;-63
2022/05/16 07:15:58;;;;;;;15.40;4.00;;;;;;;19.33;82.09;100371.84;8256662;28;20121;-63
2022/05/16 07:19:59;;;;;;;9.60;3.90;;;;;;;19.49;81.11;100371.56;8273005;28;20289;-63
2022/05/16 07:24:00;;;;;;;10.00;3.38;;;;;;;19.58;80.61;100366.75;8250626;28;20289;-63
2022/05/16 07:28:01;;;;;;;7.40;3.45;;;;;;;19.67;79.27;100382.00;8268408;28;21012;-63
2022/05/16 07:32:02;;;;;;;8.37;3.63;;;;;;;19.70;79.20;100376.94;8270131;28;20489;-63
2022/05/16 07:36:03;;;;;;;11.93;3.72;;;;;;;19.78;79.23;100400.63;8272600;28;20289;-63
2022/05/16 07:40:08;;;;;;;7.70;3.47;;;;;;;19.89;79.73;100386.34;8274452;28;20050;-63
2022/05/16 07:44:08;;;;;;;8.77;3.15;;;;;;;20.00;80.33;100391.25;8271420;28;20458;-63
2022/05/16 07:48:09;;;;;;;9.38;3.45;;;;;;;20.15;79.28;100402.94;8263913;28;20046;-63
2022/05/16 07:52:10;;;;;;;15.80;3.60;;;;;;;20.34;78.47;100402.19;8263002;28;20131;-63
2022/05/16 07:56:11;;;;;;;10.52;3.33;;;;;;;20.56;79.07;100411.97;8271322;28;20042;-63
2022/05/16 08:00:12;;;;;;;8.27;3.90;;;;;;;20.71;77.94;100426.38;8269046;28;20156;-63
2022/05/16 08:04:14;;;;;;;9.02;2.97;;;;;;;20.81;77.86;100426.81;8269680;28;20033;-63
2022/05/16 08:12:37;;;;;;;7.30;3.70;;;;;;;21.61;75.59;100455.00;8265253;28;20128;-63
2022/05/16 08:16:38;;;;;;;12.60;4.70;;;;;;;22.06;73.63;100451.38;8259985;28;20061;-63
2022/05/16 08:20:42;;;;;;;33.75;5.30;;;;;;;21.84;73.50;100460.97;8268688;28;20056;-63
2022/05/16 08:24:44;;;;;;;14.00;5.15;;;;;;;21.92;74.75;100455.19;8273316;28;20738;-63
2022/05/16 08:28:44;;;;;;;13.20;4.80;;;;;;;22.41;72.94;100452.72;8271901;28;20425;-64
2022/05/16 08:32:45;;;;;;;14.67;5.67;;;;;;;22.36;73.76;100458.03;8270372;28;20341;-64
2022/05/16 08:41:11;;;;;;;11.35;4.80;;;;;;;22.47;72.64;100453.72;8260121;28;20089;-63
2022/05/16 08:45:37;;;;;;;11.82;5.00;;;;;;;22.59;71.41;100452.88;8268260;28;20043;-63
2022/05/16 08:54:12;;;;;;;22.67;5.20;;;;;;;22.34;73.56;100443.63;8283925;28;20401;-62
2022/05/16 08:58:22;;;;;;;9.52;5.28;;;;;;;23.08;72.77;100452.13;8240682;28;20043;-62
2022/05/16 09:02:24;;;;;;;10.27;4.55;;;;;;;23.41;69.29;100452.75;8273325;28;20385;-62
2022/05/16 09:06:34;;;;;;;8.93;4.90;;;;;;;23.66;70.25;100455.53;8244026;28;20046;-62
2022/05/16 09:10:54;;;;;;;10.27;4.30;;;;;;;23.89;68.94;100444.66;8257031;28;20046;-62
2022/05/16 09:15:19;;;;;;;8.13;4.45;;;;;;;24.23;67.53;100430.28;8248258;28;20042;-62
2022/05/16 09:24:07;;;;;;;11.50;4.30;;;;;;;24.55;64.99;100434.56;8315591;28;20399;-62
2022/05/16 09:28:39;;;;;;;13.23;3.83;;;;;;;24.80;64.97;100432.53;8303830;28;20033;-62
2022/05/16 09:32:33;;;;;;;9.05;4.07;;;;;;;25.08;64.05;100429.97;8302136;28;20429;-62
2022/05/16 09:36:39;;;;;;;9.38;3.85;;;;;;;25.36;62.42;100430.16;8307296;28;20057;-62
2022/05/16 09:40:59;;;;;;;10.73;3.83;;;;;;;25.76;62.28;100428.38;8301090;28;20042;-62
2022/05/16 09:45:05;;;;;;;8.05;3.33;;;;;;;26.27;61.80;100441.50;8303270;28;20038;-63
2022/05/16 09:53:30;;;;;;;10.93;3.17;;;;;;;28.40;55.48;100446.72;8299522;28;20403;-62
2022/05/16 09:57:38;;;;;;;8.63;3.40;;;;;;;29.88;51.90;100447.75;8262610;28;20041;-62
2022/05/16 10:01:44;;;;;;;11.38;3.13;;;;;;;30.88;50.30;100447.47;8280535;28;20561;-62
2022/05/16 10:05:47;;;;;;;5.85;2.55;;;;;;;31.78;47.67;100447.56;8269205;28;20053;-62
2022/05/16 10:09:50;;;;;;;6.28;2.35;;;;;;;32.35;47.29;100447.22;8267654;28;20043;-62
2022/05/16 10:13:52;;;;;;;5.65;2.88;;;;;;;32.19;46.68;100463.22;8265994;28;20100;-62
2022/05/16 10:17:56;;;;;;;7.43;1.98;;;;;;;31.88;46.03;100457.94;8268298;28;20108;-62
2022/05/16 10:26:18;;;;;;;5.82;2.80;;;;;;;27.27;55.92;100470.47;8377762;27;20389;-62
2022/05/16 10:30:24;;;;;;;9.40;3.40;;;;;;;27.06;57.94;100468.38;8311410;28;20117;-62
2022/05/16 10:34:36;;;;;;;6.15;3.13;;;;;;;26.69;57.04;100468.75;8312326;28;20124;-62
2022/05/16 10:38:53;;;;;;;7.78;3.00;;;;;;;26.69;58.00;100467.94;8312293;28;20441;-62
2022/05/16 10:43:33;;;;;;;7.68;2.90;;;;;;;26.78;58.18;100466.47;8315688;28;20068;-62
2022/05/16 10:47:52;;;;;;;7.38;2.83;;;;;;;27.28;57.37;100477.69;8314562;28;20042;-63
2022/05/16 10:52:04;;;;;;;6.75;2.38;;;;;;;27.74;55.17;100477.38;8305265;28;20053;-62
2022/05/16 10:56:25;;;;;;;10.45;2.85;;;;;;;27.45;58.11;100475.78;8317252;28;20038;-62
2022/05/16 11:00:35;;;;;;;8.82;2.60;;;;;;;28.27;55.91;100483.25;8311742;28;20584;-62
2022/05/16 11:05:15;;;;;;;4.47;2.65;;;;;;;29.69;52.53;100482.72;8319184;28;20603;-62
2022/05/16 11:09:28;;;;;;;15.45;3.42;;;;;;;29.16;52.46;100460.47;8353847;28;20176;-62
2022/05/16 11:13:38;;;;;;;8.15;2.78;;;;;;;27.85;55.00;100463.44;8345132;28;20549;-62
2022/05/16 11:17:49;;;;;;;8.52;2.70;;;;;;;27.09;56.90;100473.44;8356755;28;20036;-62
2022/05/16 11:26:22;;;;;;;12.50;2.92;;;;;;;26.28;59.48;100476.44;8376579;27;20402;-62
2022/05/16 11:30:54;;;;;;;10.40;2.97;;;;;;;26.06;60.54;100479.00;8374429;28;20048;-62
2022/05/16 11:35:23;;;;;;;13.88;2.78;;;;;;;25.74;63.50;100483.19;8370013;28;20041;-63
2022/05/16 11:39:49;;;;;;;12.98;3.20;;;;;;;25.53;65.41;100483.78;8364382;28;20040;-63
2022/05/16 11:43:57;;;;;;;10.00;2.90;;;;;;;25.50;66.76;100500.00;8361302;28;20137;-64
2022/05/16 11:48:23;;;;;;;8.05;3.20;;;;;;;24.81;72.79;100495.91;8362641;27;20040;-64
2022/05/16 11:52:58;;;;;;;6.53;3.00;;;;;;;24.33;74.90;100486.69;8364103;27;20360;-64
2022/05/16 12:01:36;;;;;;;6.80;2.75;;;;;;;24.19;77.47;100463.06;8375031;28;20123;-64
2022/05/16 12:14:34;;;;;;;8.55;3.38;;;;;;;23.56;82.31;100482.78;8379932;27;20400;-63
2022/05/16 12:18:39;;;;;;;11.32;3.90;;;;;;;23.59;82.78;100476.81;8343815;28;20056;-63
2022/05/16 12:27:04;;;;;;;29.05;7.00;;;;;;;24.95;73.72;100496.56;8394884;27;20399;-63
2022/05/16 12:31:09;;;;;;;31.00;5.82;;;;;;;24.92;73.36;100508.09;8395042;28;20774;-63
2022/05/16 12:35:14;;;;;;;20.80;7.18;;;;;;;24.79;71.67;100525.72;8380887;28;20045;-64
2022/05/16 12:39:27;;;;;;;23.55;7.70;;;;;;;24.60;72.62;100525.91;8382106;28;20501;-64
2022/05/16 12:56:50;;;;;;;17.20;6.22;;;;;;;24.66;71.54;100572.03;8425809;27;20403;-63
2022/05/16 13:01:02;;;;;;;21.42;6.03;;;;;;;24.70;70.84;100592.66;8402983;28;20084;-63
2022/05/16 13:05:25;;;;;;;32.53;6.50;;;;;;;24.61;68.11;100582.94;8405170;28;20592;-63
2022/05/16 13:10:01;;;;;;;13.43;5.43;;;;;;;24.65;68.15;100595.25;8405744;28;20036;-64
2022/05/16 13:14:12;;;;;;;16.92;6.43;;;;;;;24.78;68.43;100584.03;8400973;28;20044;-63
2022/05/16 13:18:24;;;;;;;18.10;6.47;;;;;;;24.96;67.71;100579.34;8399266;28;20127;-63
2022/05/16 13:22:24;;;;;;;18.48;6.18;;;;;;;25.14;67.43;100584.00;8405141;28;20669;-63
2022/05/16 13:30:58;;;;;;;16.50;6.25;;;;;;;25.20;66.82;100590.50;8410844;28;20068;-63
2022/05/16 13:35:02;;;;;;;13.30;6.53;;;;;;;24.86;68.56;100600.31;8409383;28;20040;-63
2022/05/16 13:39:09;;;;;;;16.47;7.07;;;;;;;24.63;70.01;100605.66;8398556;28;20660;-63
2022/05/16 13:43:27;;;;;;;15.05;6.28;;;;;;;24.79;70.28;100605.06;8399079;28;20275;-63
2022/05/16 13:47:31;;;;;;;16.88;6.32;;;;;;;24.91;68.52;100611.53;8403378;28;20043;-63
2022/05/16 13:51:33;;;;;;;14.53;5.20;;;;;;;24.76;68.16;100639.56;8407354;28;20400;-63
2022/05/16 13:55:35;;;;;;;10.25;5.10;;;;;;;24.92;65.82;100641.72;8407879;28;20127;-63
2022/05/16 13:59:36;;;;;;;6.22;5.15;;;;;;;24.45;67.44;100659.00;8412075;28;20036;-63
2022/05/16 14:03:38;;;;;;;12.38;6.22;;;;;;;24.09;68.88;100666.38;8412178;28;20032;-63
2022/05/16 14:07:40;;;;;;;12.88;5.82;;;;;;;23.74;70.41;100662.31;8392928;28;20032;-63
2022/05/16 14:11:43;;;;;;;9.55;4.72;;;;;;;23.65;70.04;100674.69;8393389;28;20162;-61
2022/05/16 14:15:53;;;;;;;16.30;5.68;;;;;;;23.94;68.90;100677.69;8395477;28;20037;-61
2022/05/16 14:19:54;;;;;;;12.15;6.40;;;;;;;23.55;70.25;100663.28;8399036;28;20052;-63
2022/05/16 14:28:29;;;;;;;14.40;5.25;;;;;;;23.79;70.32;100666.13;8406967;27;20514;-62
2022/05/16 14:32:31;;;;;;;9.07;4.00;;;;;;;24.07;67.04;100672.13;8410698;28;20048;-61
2022/05/16 14:36:40;;;;;;;9.10;4.05;;;;;;;23.80;65.87;100669.72;8412073;28;20048;-63
2022/05/16 14:40:43;;;;;;;9.82;4.63;;;;;;;23.73;66.72;100666.16;8397298;28;20040;-62
2022/05/16 14:49:28;;;;;;;12.00;4.93;;;;;;;24.46;66.16;100668.16;8415401;27;20425;-61
2022/05/16 14:53:29;;;;;;;14.98;5.53;;;;;;;24.22;67.73;100682.84;8367829;28;20145;-62
2022/05/16 14:57:30;;;;;;;13.30;5.43;;;;;;;24.14;68.08;100677.56;8376491;28;20049;-61
2022/05/16 15:05:51;;;;;;;10.48;5.10;;;;;;;23.78;68.78;100682.91;8388902;28;20037;-62
2022/05/16 15:09:52;;;;;;;10.80;4.70;;;;;;;23.67;69.66;100683.63;8406048;28;20071;-62
2022/05/16 15:13:52;;;;;;;12.68;5.85;;;;;;;23.45;68.63;100680.31;8382943;28;20094;-62
2022/05/16 15:17:53;;;;;;;6.05;4.47;;;;;;;23.45;68.81;100696.06;8373861;28;20047;-61
2022/05/16 15:21:55;;;;;;;10.95;5.55;;;;;;;23.82;67.99;100697.97;8377267;28;20567;-62
2022/05/16 15:25:57;;;;;;;12.82;5.60;;;;;;;23.46;68.73;100708.78;8367178;28;20048;-62
2022/05/16 15:29:58;;;;;;;10.63;5.32;;;;;;;23.27;70.02;100715.22;8389445;28;20036;-62
2022/05/16 15:33:59;;;;;;;12.02;6.32;;;;;;;23.12;70.88;100721.81;8393966;28;20060;-62
2022/05/16 15:37:59;;;;;;;8.80;5.38;;;;;;;22.88;72.35;100733.53;8390107;28;20047;-62
2022/05/16 15:42:00;;;;;;;14.27;5.97;;;;;;;22.90;71.93;100734.19;8371900;28;20055;-62
2022/05/16 15:46:01;;;;;;;14.80;3.20;;;;;;;22.70;67.98;100738.88;8394921;28;20336;-62
2022/05/16 15:50:01;;;;;;;7.13;3.08;;;;;;;22.54;67.85;100739.31;8383200;28;20036;-63
2022/05/16 15:54:03;;;;;;;6.47;4.00;;;;;;;22.50;69.47;100742.69;8379402;28;20045;-62
2022/05/16 15:58:06;;;;;;;7.32;3.50;;;;;;;22.53;70.57;100756.06;8382033;28;20037;-62
2022/05/16 16:02:14;;;;;;;12.00;3.88;;;;;;;22.53;70.21;100747.78;8370061;28;20044;-62
2022/05/16 16:10:35;;;;;;;13.02;4.47;;;;;;;22.44;71.19;100749.88;8363786;28;20067;-57
2022/05/16 16:14:36;;;;;;;15.35;4.30;;;;;;;22.29;71.91;100751.16;8366090;28;20041;-62
2022/05/16 16:18:36;;;;;;;11.23;4.57;;;;;;;22.34;71.40;100752.22;8361825;28;20064;-63
2022/05/16 16:22:37;;;;;;;12.15;4.22;;;;;;;22.39;71.38;100751.56;8381415;28;20045;-62
2022/05/16 16:26:38;;;;;;;7.20;3.60;;;;;;;22.50;71.27;100751.81;8378483;28;20040;-62
2022/05/16 16:30:47;;;;;;;12.27;3.88;;;;;;;22.58;70.10;100754.38;8373735;28;20029;-62
2022/05/16 16:34:48;;;;;;;12.65;4.40;;;;;;;22.76;69.67;100749.06;8369190;28;20389;-61
2022/05/16 16:38:48;;;;;;;9.57;4.15;;;;;;;22.58;69.47;100748.88;8357839;28;20051;-63
2022/05/16 16:42:48;;;;;;;9.10;3.63;;;;;;;22.60;70.14;100752.22;8360286;28;20037;-63
2022/05/16 16:46:49;;;;;;;12.18;3.65;;;;;;;22.65;70.56;100757.97;8365617;28;20629;-63
2022/05/16 16:50:51;;;;;;;7.43;3.72;;;;;;;22.54;70.01;100757.75;8362574;28;20049;-63
2022/05/16 16:59:12;;;;;;;7.97;2.97;;;;;;;22.48;70.82;100758.59;8368394;28;20037;-62
2022/05/16 17:03:14;;;;;;;12.40;3.37;;;;;;;22.50;70.79;100770.25;8368464;28;20061;-63
2022/05/16 17:07:14;;;;;;;11.02;3.50;;;;;;;22.58;71.02;100765.41;8357714;28;20284;-63
2022/05/16 17:11:15;;;;;;;9.50;3.20;;;;;;;22.68;70.34;100760.28;8354211;28;20048;-63
2022/05/16 17:15:15;;;;;;;12.80;3.88;;;;;;;23.28;69.75;100759.16;8349100;28;20073;-59
2022/05/16 17:19:16;;;;;;;9.40;3.03;;;;;;;23.01;69.92;100763.00;8358959;28;20108;-62
2022/05/16 17:23:17;;;;;;;8.13;3.78;;;;;;;23.00;70.15;100770.44;8367937;28;20036;-62
2022/05/16 17:27:17;;;;;;;10.80;3.15;;;;;;;22.89;71.15;100773.84;8391659;28;20064;-62
2022/05/16 17:31:20;;;;;;;10.75;3.50;;;;;;;22.87;71.33;100764.09;8375058;28;20056;-62
2022/05/16 17:35:22;;;;;;;9.98;3.70;;;;;;;22.66;71.70;100770.69;8371130;28;20116;-62
2022/05/16 17:39:22;;;;;;;9.85;3.90;;;;;;;22.47;72.51;100776.16;8364001;28;20045;-62
2022/05/16 17:43:23;;;;;;;11.70;3.72;;;;;;;22.42;72.05;100782.28;8375423;28;20061;-62
2022/05/16 17:47:23;;;;;;;12.33;3.57;;;;;;;22.46;73.02;100783.59;8358561;28;20048;-62
2022/05/16 17:51:27;;;;;;;14.93;4.45;;;;;;;22.34;73.81;100788.03;8368260;28;20279;-63
2022/05/16 17:55:27;;;;;;;18.93;4.60;;;;;;;22.45;72.85;100787.38;8369476;28;20120;-63
2022/05/16 17:59:28;;;;;;;10.63;3.58;;;;;;;22.43;73.15;100786.78;8354744;28;20041;-63
2022/05/16 18:03:29;;;;;;;6.60;2.93;;;;;;;22.35;73.04;100792.47;8369049;28;20112;-64
2022/05/16 18:07:29;;;;;;;9.90;4.15;;;;;;;22.30;71.76;100784.00;8374256;28;20286;-63
2022/05/16 18:12:49;;;;;;;9.17;2.47;;;;;;;22.25;71.30;100791.19;8382740;28;20047;-64
2022/05/16 18:15:52;;;;;;;10.98;2.55;;;;;;;22.21;70.56;100796.28;8370028;28;20284;-64
2022/05/16 18:19:54;;;;;;;9.38;2.60;;;;;;;22.20;71.11;100802.00;8371669;28;20102;-63
2022/05/16 18:23:56;;;;;;;7.78;2.25;;;;;;;22.16;69.65;100797.94;8356530;28;20044;-63
2022/05/16 18:27:56;;;;;;;13.40;2.20;;;;;;;22.20;68.62;100810.25;8356158;28;20053;-63
2022/05/16 18:31:57;;;;;;;9.90;3.03;;;;;;;22.14;69.25;100806.41;8364945;28;20056;-63
2022/05/16 18:35:58;;;;;;;5.20;2.13;;;;;;;22.14;68.48;100816.59;8370810;28;20599;-63
2022/05/16 18:39:59;;;;;;;5.47;1.60;;;;;;;22.11;67.50;100822.53;8365598;28;20037;-63
2022/05/16 18:52:41;;;;;;;5.90;1.90;;;;;;;21.70;67.99;100840.97;8370747;28;20323;-63
2022/05/16 18:56:41;;;;;;;7.60;1.83;;;;;;;21.53;68.58;100850.63;8370798;28;20033;-63
2022/05/16 19:00:45;;;;;;;6.63;1.90;;;;;;;21.37;68.99;100860.03;8387421;28;20037;-63
2022/05/16 19:04:46;;;;;;;3.45;1.58;;;;;;;21.22;69.69;100856.56;8362613;28;20077;-63
2022/05/16 19:08:46;;;;;;;8.30;2.40;;;;;;;21.03;70.53;100860.88;8369522;28;20037;-63
2022/05/16 19:12:46;;;;;;;5.32;1.58;;;;;;;20.90;71.04;100859.88;8372755;28;20267;-63
2022/05/16 19:16:47;;;;;;;5.75;1.70;;;;;;;20.72;71.82;100862.25;8366376;28;20041;-63
2022/05/16 19:20:50;;;;;;;7.13;1.88;;;;;;;20.48;73.12;100876.38;8372222;28;20045;-63
2022/05/16 19:24:51;;;;;;;9.93;1.90;;;;;;;20.34;73.63;100875.38;8381199;28;20057;-63
2022/05/16 19:33:12;;;;;;;8.18;1.75;;;;;;;20.08;74.55;100877.81;8365468;28;20033;-63
2022/05/16 19:37:13;;;;;;;7.22;1.95;;;;;;;19.96;74.87;100878.50;8372608;28;20050;-63
2022/05/16 19:41:14;;;;;;;12.45;2.17;;;;;;;19.89;75.04;100880.31;8368631;28;20494;-63
2022/05/16 19:45:14;;;;;;;10.13;1.83;;;;;;;19.83;75.08;100886.56;8367544;28;20029;-63
2022/05/16 19:49:15;;;;;;;9.05;2.72;;;;;;;19.77;75.04;100892.81;8371762;28;20044;-63
2022/05/16 19:53:18;;;;;;;9.30;2.15;;;;;;;19.66;75.10;100901.53;8370202;28;20501;-63
2022/05/16 19:57:19;;;;;;;8.00;2.00;;;;;;;19.59;75.37;100900.59;8371602;28;20066;-63
2022/05/16 20:01:20;;;;;;;5.70;2.50;;;;;;;19.39;76.42;100901.16;8364876;28;20346;-63
2022/05/16 20:05:21;;;;;;;8.30;2.35;;;;;;;19.21;76.60;100905.25;8366397;28;20045;-63
2022/05/16 20:09:21;;;;;;;5.47;1.88;;;;;;;18.99;77.77;100908.88;8366399;28;20071;-63
2022/05/16 20:13:23;;;;;;;11.27;2.45;;;;;;;19.10;76.65;100912.06;8367213;28;20489;-63
2022/05/16 20:17:24;;;;;;;9.65;1.80;;;;;;;19.06;76.83;100916.19;8369863;28;20103;-63
2022/05/16 20:21:25;;;;;;;9.45;2.50;;;;;;;18.79;77.49;100915.94;8379885;28;21475;-63
2022/05/16 20:25:28;;;;;;;12.43;2.20;;;;;;;18.51;79.11;100920.25;8374206;28;20041;-63
2022/05/16 20:29:28;;;;;;;9.75;2.90;;;;;;;18.33;80.56;100923.22;8355043;28;20147;-63
2022/05/16 20:33:28;;;;;;;6.93;2.37;;;;;;;18.09;80.77;100926.13;8374650;28;20043;-63
2022/05/16 20:37:29;;;;;;;6.95;2.33;;;;;;;18.05;81.32;100927.50;8371183;28;20429;-63
2022/05/16 20:41:30;;;;;;;8.48;2.10;;;;;;;17.83;82.54;100931.03;8376438;28;20032;-63
2022/05/16 20:45:31;;;;;;;5.13;2.03;;;;;;;17.72;83.35;100936.91;8375300;28;20044;-64